sensor_id;sensor_type;location;lat;lon;timestamp;P1;durP1;ratioP1;P2;durP2;ratioP2
57848;SDS011;68645;44.762;21.516;2023-04-01T00:01:43;23.42;;;14.13;;
57848;SDS011;68645;44.762;21.516;2023-04-01T00:04:09;17.27;;;11.68;;
57848;SDS011;68645;44.762;21.516;2023-04-01T00:06:35;14.73;;;10.20;;
57848;SDS011;68645;44.762;21.516;2023-04-01T00:09:01;14.65;;;9.70;;
57848;SDS011;68645;44.762;21.516;2023-04-01T00:11:28;14.73;;;9.18;;
57848;SDS011;68645;44.762;21.516;2023-04-01T00:13:54;13.18;;;8.52;;
57848;SDS011;68645;44.762;21.516;2023-04-01T00:16:20;11.68;;;8.05;;
57848;SDS011;68645;44.762;21.516;2023-04-01T00:18:47;13.68;;;9.45;;
57848;SDS011;68645;44.762;21.516;2023-04-01T00:21:13;27.83;;;17.40;;
57848;SDS011;68645;44.762;21.516;2023-04-01T00:23:40;24.35;;;13.63;;
57848;SDS011;68645;44.762;21.516;2023-04-01T00:26:06;32.88;;;20.05;;
57848;SDS011;68645;44.762;21.516;2023-04-01T00:28:33;30.67;;;18.35;;
57848;SDS011;68645;44.762;21.516;2023-04-01T00:31:04;31.58;;;13.55;;
57848;SDS011;68645;44.762;21.516;2023-04-01T00:33:31;25.63;;;13.30;;
57848;SDS011;68645;44.762;21.516;2023-04-01T00:36:05;22.05;;;13.65;;
57848;SDS011;68645;44.762;21.516;2023-04-01T00:38:31;18.80;;;12.65;;
57848;SDS011;68645;44.762;21.516;2023-04-01T00:40:58;23.42;;;15.32;;
57848;SDS011;68645;44.762;21.516;2023-04-01T00:43:24;25.92;;;15.65;;
57848;SDS011;68645;44.762;21.516;2023-04-01T00:45:51;28.45;;;17.90;;
57848;SDS011;68645;44.762;21.516;2023-04-01T00:48:18;32.15;;;19.35;;
57848;SDS011;68645;44.762;21.516;2023-04-01T00:50:56;29.05;;;18.98;;
57848;SDS011;68645;44.762;21.516;2023-04-01T00:53:23;28.90;;;17.95;;
57848;SDS011;68645;44.762;21.516;2023-04-01T00:55:52;30.50;;;18.10;;
57848;SDS011;68645;44.762;21.516;2023-04-01T00:58:20;30.23;;;19.52;;
57848;SDS011;68645;44.762;21.516;2023-04-01T01:00:47;24.55;;;16.85;;
57848;SDS011;68645;44.762;21.516;2023-04-01T01:03:14;24.92;;;17.30;;
57848;SDS011;68645;44.762;21.516;2023-04-01T01:09:10;25.23;;;16.98;;
57848;SDS011;68645;44.762;21.516;2023-04-01T01:11:08;25.17;;;17.88;;
57848;SDS011;68645;44.762;21.516;2023-04-01T01:16:09;23.00;;;16.70;;
57848;SDS011;68645;44.762;21.516;2023-04-01T01:31:44;41.38;;;26.58;;
57848;SDS011;68645;44.762;21.516;2023-04-01T01:34:28;36.47;;;21.42;;
57848;SDS011;68645;44.762;21.516;2023-04-01T01:37:01;36.65;;;20.15;;
57848;SDS011;68645;44.762;21.516;2023-04-01T01:39:30;28.38;;;17.17;;
57848;SDS011;68645;44.762;21.516;2023-04-01T01:41:57;22.92;;;14.45;;
57848;SDS011;68645;44.762;21.516;2023-04-01T01:44:25;20.25;;;12.45;;
57848;SDS011;68645;44.762;21.516;2023-04-01T01:46:53;20.83;;;12.50;;
57848;SDS011;68645;44.762;21.516;2023-04-01T01:49:20;20.63;;;11.55;;
57848;SDS011;68645;44.762;21.516;2023-04-01T01:51:47;18.83;;;11.48;;
57848;SDS011;68645;44.762;21.516;2023-04-01T01:54:13;14.93;;;9.35;;
57848;SDS011;68645;44.762;21.516;2023-04-01T01:56:39;13.95;;;8.07;;
57848;SDS011;68645;44.762;21.516;2023-04-01T01:59:08;15.02;;;7.45;;
57848;SDS011;68645;44.762;21.516;2023-04-01T02:01:35;11.80;;;7.15;;
57848;SDS011;68645;44.762;21.516;2023-04-01T02:04:03;11.80;;;7.18;;
57848;SDS011;68645;44.762;21.516;2023-04-01T02:06:30;13.40;;;6.93;;
57848;SDS011;68645;44.762;21.516;2023-04-01T02:09:02;18.75;;;9.13;;
57848;SDS011;68645;44.762;21.516;2023-04-01T02:11:33;23.73;;;12.77;;
57848;SDS011;68645;44.762;21.516;2023-04-01T02:14:02;21.02;;;10.80;;
57848;SDS011;68645;44.762;21.516;2023-04-01T02:16:34;17.80;;;10.50;;
57848;SDS011;68645;44.762;21.516;2023-04-01T02:19:02;17.67;;;10.95;;
57848;SDS011;68645;44.762;21.516;2023-04-01T02:21:32;13.15;;;8.77;;
57848;SDS011;68645;44.762;21.516;2023-04-01T02:24:00;11.18;;;6.65;;
57848;SDS011;68645;44.762;21.516;2023-04-01T02:26:26;11.27;;;5.82;;
57848;SDS011;68645;44.762;21.516;2023-04-01T02:28:53;9.55;;;5.47;;
57848;SDS011;68645;44.762;21.516;2023-04-01T02:31:19;8.77;;;5.45;;
57848;SDS011;68645;44.762;21.516;2023-04-01T02:33:46;9.15;;;5.28;;
57848;SDS011;68645;44.762;21.516;2023-04-01T02:36:13;11.30;;;5.90;;
57848;SDS011;68645;44.762;21.516;2023-04-01T02:38:41;12.77;;;7.78;;
57848;SDS011;68645;44.762;21.516;2023-04-01T02:41:08;9.82;;;7.18;;
57848;SDS011;68645;44.762;21.516;2023-04-01T02:43:34;13.40;;;7.78;;
57848;SDS011;68645;44.762;21.516;2023-04-01T02:46:00;28.58;;;18.35;;
57848;SDS011;68645;44.762;21.516;2023-04-01T02:48:27;22.38;;;14.48;;
57848;SDS011;68645;44.762;21.516;2023-04-01T02:50:53;21.35;;;12.20;;
57848;SDS011;68645;44.762;21.516;2023-04-01T02:53:19;18.33;;;10.68;;
57848;SDS011;68645;44.762;21.516;2023-04-01T02:55:45;16.95;;;10.10;;
57848;SDS011;68645;44.762;21.516;2023-04-01T02:58:14;20.73;;;10.20;;
57848;SDS011;68645;44.762;21.516;2023-04-01T03:00:40;17.85;;;10.13;;
57848;SDS011;68645;44.762;21.516;2023-04-01T03:03:07;20.58;;;10.75;;
57848;SDS011;68645;44.762;21.516;2023-04-01T03:05:33;21.38;;;13.38;;
57848;SDS011;68645;44.762;21.516;2023-04-01T03:07:59;23.50;;;14.43;;
57848;SDS011;68645;44.762;21.516;2023-04-01T03:10:25;18.95;;;12.15;;
57848;SDS011;68645;44.762;21.516;2023-04-01T03:12:52;21.50;;;11.43;;
57848;SDS011;68645;44.762;21.516;2023-04-01T03:15:18;19.48;;;12.32;;
57848;SDS011;68645;44.762;21.516;2023-04-01T03:17:44;23.30;;;12.18;;
57848;SDS011;68645;44.762;21.516;2023-04-01T03:20:12;16.27;;;9.68;;
57848;SDS011;68645;44.762;21.516;2023-04-01T03:22:38;13.10;;;8.40;;
57848;SDS011;68645;44.762;21.516;2023-04-01T03:25:05;13.80;;;7.72;;
57848;SDS011;68645;44.762;21.516;2023-04-01T03:27:32;11.75;;;8.00;;
57848;SDS011;68645;44.762;21.516;2023-04-01T03:29:59;15.30;;;7.43;;
57848;SDS011;68645;44.762;21.516;2023-04-01T03:32:25;25.90;;;14.63;;
57848;SDS011;68645;44.762;21.516;2023-04-01T03:34:52;26.75;;;15.73;;
57848;SDS011;68645;44.762;21.516;2023-04-01T03:37:18;19.67;;;10.63;;
57848;SDS011;68645;44.762;21.516;2023-04-01T03:39:44;17.88;;;9.32;;
57848;SDS011;68645;44.762;21.516;2023-04-01T03:42:11;13.52;;;8.02;;
57848;SDS011;68645;44.762;21.516;2023-04-01T03:44:37;13.20;;;8.93;;
57848;SDS011;68645;44.762;21.516;2023-04-01T03:47:03;19.48;;;10.80;;
57848;SDS011;68645;44.762;21.516;2023-04-01T03:49:29;21.15;;;12.93;;
57848;SDS011;68645;44.762;21.516;2023-04-01T03:51:57;18.25;;;11.40;;
57848;SDS011;68645;44.762;21.516;2023-04-01T03:54:23;17.23;;;9.95;;
57848;SDS011;68645;44.762;21.516;2023-04-01T03:56:49;16.63;;;10.88;;
57848;SDS011;68645;44.762;21.516;2023-04-01T03:59:16;17.23;;;10.18;;
57848;SDS011;68645;44.762;21.516;2023-04-01T04:01:42;19.17;;;9.25;;
57848;SDS011;68645;44.762;21.516;2023-04-01T04:04:10;19.48;;;11.05;;
57848;SDS011;68645;44.762;21.516;2023-04-01T04:06:37;36.15;;;23.88;;
57848;SDS011;68645;44.762;21.516;2023-04-01T04:09:04;34.33;;;23.25;;
57848;SDS011;68645;44.762;21.516;2023-04-01T04:11:30;27.45;;;18.80;;
57848;SDS011;68645;44.762;21.516;2023-04-01T04:13:58;20.52;;;11.98;;
57848;SDS011;68645;44.762;21.516;2023-04-01T04:16:24;16.90;;;10.90;;
57848;SDS011;68645;44.762;21.516;2023-04-01T04:18:50;15.85;;;10.43;;
57848;SDS011;68645;44.762;21.516;2023-04-01T04:21:16;31.33;;;23.42;;
57848;SDS011;68645;44.762;21.516;2023-04-01T04:23:43;19.33;;;12.65;;
57848;SDS011;68645;44.762;21.516;2023-04-01T04:26:10;15.27;;;9.75;;
57848;SDS011;68645;44.762;21.516;2023-04-01T04:28:36;14.82;;;10.05;;
57848;SDS011;68645;44.762;21.516;2023-04-01T04:31:03;15.27;;;10.05;;
57848;SDS011;68645;44.762;21.516;2023-04-01T04:33:33;16.45;;;10.63;;
57848;SDS011;68645;44.762;21.516;2023-04-01T04:35:59;20.02;;;11.70;;
57848;SDS011;68645;44.762;21.516;2023-04-01T04:38:26;18.50;;;12.68;;
57848;SDS011;68645;44.762;21.516;2023-04-01T04:40:52;24.73;;;14.82;;
57848;SDS011;68645;44.762;21.516;2023-04-01T04:43:19;28.45;;;16.83;;
57848;SDS011;68645;44.762;21.516;2023-04-01T04:45:45;23.95;;;14.77;;
57848;SDS011;68645;44.762;21.516;2023-04-01T04:48:12;19.60;;;13.63;;
57848;SDS011;68645;44.762;21.516;2023-04-01T04:50:41;19.13;;;12.80;;
57848;SDS011;68645;44.762;21.516;2023-04-01T04:53:14;24.88;;;16.83;;
57848;SDS011;68645;44.762;21.516;2023-04-01T04:55:47;23.77;;;17.38;;
57848;SDS011;68645;44.762;21.516;2023-04-01T04:58:13;22.10;;;14.27;;
57848;SDS011;68645;44.762;21.516;2023-04-01T05:00:39;23.05;;;15.82;;
57848;SDS011;68645;44.762;21.516;2023-04-01T05:03:05;27.63;;;18.13;;
57848;SDS011;68645;44.762;21.516;2023-04-01T05:05:31;27.00;;;17.25;;
57848;SDS011;68645;44.762;21.516;2023-04-01T05:07:57;31.73;;;21.60;;
57848;SDS011;68645;44.762;21.516;2023-04-01T05:10:24;24.67;;;16.58;;
57848;SDS011;68645;44.762;21.516;2023-04-01T05:12:50;25.27;;;14.85;;
57848;SDS011;68645;44.762;21.516;2023-04-01T05:15:16;22.77;;;14.45;;
57848;SDS011;68645;44.762;21.516;2023-04-01T05:17:42;19.38;;;12.32;;
57848;SDS011;68645;44.762;21.516;2023-04-01T05:20:08;19.63;;;12.05;;
57848;SDS011;68645;44.762;21.516;2023-04-01T05:22:35;15.98;;;10.48;;
57848;SDS011;68645;44.762;21.516;2023-04-01T05:25:01;16.83;;;9.27;;
57848;SDS011;68645;44.762;21.516;2023-04-01T05:27:27;14.35;;;9.90;;
57848;SDS011;68645;44.762;21.516;2023-04-01T05:29:53;15.65;;;10.40;;
57848;SDS011;68645;44.762;21.516;2023-04-01T05:32:19;14.68;;;9.85;;
57848;SDS011;68645;44.762;21.516;2023-04-01T05:34:45;16.67;;;10.13;;
57848;SDS011;68645;44.762;21.516;2023-04-01T05:37:11;17.25;;;11.50;;
57848;SDS011;68645;44.762;21.516;2023-04-01T05:39:38;21.23;;;17.33;;
57848;SDS011;68645;44.762;21.516;2023-04-01T05:42:07;26.92;;;17.88;;
57848;SDS011;68645;44.762;21.516;2023-04-01T05:44:34;26.15;;;16.90;;
57848;SDS011;68645;44.762;21.516;2023-04-01T05:47:00;21.92;;;15.60;;
57848;SDS011;68645;44.762;21.516;2023-04-01T05:49:26;31.50;;;20.73;;
57848;SDS011;68645;44.762;21.516;2023-04-01T05:51:52;50.80;;;33.08;;
57848;SDS011;68645;44.762;21.516;2023-04-01T05:54:19;53.70;;;33.08;;
57848;SDS011;68645;44.762;21.516;2023-04-01T05:56:45;54.67;;;32.55;;
57848;SDS011;68645;44.762;21.516;2023-04-01T05:59:12;37.00;;;25.67;;
57848;SDS011;68645;44.762;21.516;2023-04-01T06:01:38;33.88;;;24.92;;
57848;SDS011;68645;44.762;21.516;2023-04-01T06:04:04;31.85;;;23.15;;
57848;SDS011;68645;44.762;21.516;2023-04-01T06:06:31;48.85;;;31.08;;
57848;SDS011;68645;44.762;21.516;2023-04-01T06:08:58;45.72;;;28.63;;
57848;SDS011;68645;44.762;21.516;2023-04-01T06:16:35;57.38;;;34.78;;
57848;SDS011;68645;44.762;21.516;2023-04-01T06:29:47;20.90;;;15.02;;
57848;SDS011;68645;44.762;21.516;2023-04-01T06:32:24;23.93;;;16.17;;
57848;SDS011;68645;44.762;21.516;2023-04-01T06:40:36;17.08;;;12.80;;
57848;SDS011;68645;44.762;21.516;2023-04-01T06:48:19;23.33;;;16.60;;
57848;SDS011;68645;44.762;21.516;2023-04-01T06:50:58;20.65;;;14.38;;
57848;SDS011;68645;44.762;21.516;2023-04-01T06:56:07;27.30;;;18.88;;
57848;SDS011;68645;44.762;21.516;2023-04-01T06:58:37;32.88;;;22.35;;
57848;SDS011;68645;44.762;21.516;2023-04-01T07:01:08;79.18;;;43.47;;
57848;SDS011;68645;44.762;21.516;2023-04-01T07:06:05;56.78;;;37.50;;
57848;SDS011;68645;44.762;21.516;2023-04-01T07:08:34;55.78;;;36.97;;
57848;SDS011;68645;44.762;21.516;2023-04-01T07:11:03;45.92;;;29.42;;
57848;SDS011;68645;44.762;21.516;2023-04-01T07:18:45;37.65;;;24.52;;
57848;SDS011;68645;44.762;21.516;2023-04-01T07:21:23;42.40;;;28.23;;
57848;SDS011;68645;44.762;21.516;2023-04-01T07:23:51;36.40;;;26.30;;
57848;SDS011;68645;44.762;21.516;2023-04-01T07:26:22;37.25;;;25.85;;
57848;SDS011;68645;44.762;21.516;2023-04-01T07:28:48;34.17;;;23.98;;
57848;SDS011;68645;44.762;21.516;2023-04-01T07:36:54;27.80;;;18.15;;
57848;SDS011;68645;44.762;21.516;2023-04-01T07:44:36;25.65;;;17.90;;
57848;SDS011;68645;44.762;21.516;2023-04-01T07:49:42;24.10;;;15.30;;
57848;SDS011;68645;44.762;21.516;2023-04-01T07:52:26;21.73;;;16.05;;
57848;SDS011;68645;44.762;21.516;2023-04-01T07:55:05;23.88;;;17.52;;
57848;SDS011;68645;44.762;21.516;2023-04-01T08:05:13;30.23;;;24.50;;
57848;SDS011;68645;44.762;21.516;2023-04-01T08:07:44;27.88;;;21.08;;
57848;SDS011;68645;44.762;21.516;2023-04-01T08:10:14;24.63;;;18.73;;
57848;SDS011;68645;44.762;21.516;2023-04-01T08:15:21;26.25;;;17.35;;
57848;SDS011;68645;44.762;21.516;2023-04-01T08:18:07;24.73;;;16.65;;
57848;SDS011;68645;44.762;21.516;2023-04-01T08:23:26;23.70;;;15.95;;
57848;SDS011;68645;44.762;21.516;2023-04-01T08:25:58;28.50;;;16.88;;
57848;SDS011;68645;44.762;21.516;2023-04-01T08:28:33;32.33;;;26.05;;
57848;SDS011;68645;44.762;21.516;2023-04-01T08:31:09;34.88;;;26.40;;
57848;SDS011;68645;44.762;21.516;2023-04-01T08:33:37;25.58;;;20.92;;
57848;SDS011;68645;44.762;21.516;2023-04-01T08:38:42;31.00;;;22.45;;
57848;SDS011;68645;44.762;21.516;2023-04-01T08:41:18;31.42;;;19.00;;
57848;SDS011;68645;44.762;21.516;2023-04-01T08:43:51;25.05;;;19.75;;
57848;SDS011;68645;44.762;21.516;2023-04-01T08:46:27;24.55;;;18.25;;
57848;SDS011;68645;44.762;21.516;2023-04-01T08:49:17;29.05;;;18.38;;
57848;SDS011;68645;44.762;21.516;2023-04-01T08:54:39;45.17;;;25.95;;
57848;SDS011;68645;44.762;21.516;2023-04-01T09:00:00;53.90;;;36.05;;
57848;SDS011;68645;44.762;21.516;2023-04-01T09:02:47;35.38;;;22.98;;
57848;SDS011;68645;44.762;21.516;2023-04-01T09:23:38;46.70;;;27.55;;
57848;SDS011;68645;44.762;21.516;2023-04-01T09:26:17;50.63;;;31.73;;
57848;SDS011;68645;44.762;21.516;2023-04-01T09:28:57;47.72;;;32.97;;
57848;SDS011;68645;44.762;21.516;2023-04-01T09:34:11;56.28;;;42.15;;
57848;SDS011;68645;44.762;21.516;2023-04-01T09:36:45;44.28;;;30.75;;
57848;SDS011;68645;44.762;21.516;2023-04-01T09:52:13;40.08;;;30.00;;
57848;SDS011;68645;44.762;21.516;2023-04-01T09:54:56;45.85;;;31.55;;
57848;SDS011;68645;44.762;21.516;2023-04-01T10:02:55;36.58;;;23.15;;
57848;SDS011;68645;44.762;21.516;2023-04-01T10:51:52;25.80;;;15.25;;
57848;SDS011;68645;44.762;21.516;2023-04-01T10:57:42;15.38;;;11.40;;
57848;SDS011;68645;44.762;21.516;2023-04-01T11:00:07;24.42;;;16.27;;
57848;SDS011;68645;44.762;21.516;2023-04-01T11:21:41;22.52;;;16.08;;
57848;SDS011;68645;44.762;21.516;2023-04-01T11:26:51;34.38;;;23.58;;
57848;SDS011;68645;44.762;21.516;2023-04-01T11:29:23;26.52;;;18.95;;
57848;SDS011;68645;44.762;21.516;2023-04-01T11:37:01;35.42;;;23.08;;
57848;SDS011;68645;44.762;21.516;2023-04-01T11:44:31;32.70;;;23.05;;
57848;SDS011;68645;44.762;21.516;2023-04-01T11:47:21;30.60;;;20.33;;
57848;SDS011;68645;44.762;21.516;2023-04-01T12:05:25;30.75;;;22.58;;
57848;SDS011;68645;44.762;21.516;2023-04-01T12:10:21;23.55;;;18.58;;
57848;SDS011;68645;44.762;21.516;2023-04-01T12:15:38;25.92;;;19.48;;
57848;SDS011;68645;44.762;21.516;2023-04-01T12:28:41;20.75;;;13.25;;
57848;SDS011;68645;44.762;21.516;2023-04-01T12:36:31;18.80;;;13.27;;
57848;SDS011;68645;44.762;21.516;2023-04-01T12:41:44;25.50;;;14.93;;
57848;SDS011;68645;44.762;21.516;2023-04-01T12:54:07;16.45;;;11.93;;
57848;SDS011;68645;44.762;21.516;2023-04-01T12:56:59;17.55;;;12.90;;
57848;SDS011;68645;44.762;21.516;2023-04-01T13:04:48;24.75;;;17.13;;
57848;SDS011;68645;44.762;21.516;2023-04-01T13:12:29;20.77;;;15.50;;
57848;SDS011;68645;44.762;21.516;2023-04-01T13:28:14;11.75;;;4.70;;
57848;SDS011;68645;44.762;21.516;2023-04-01T13:39:01;13.85;;;5.82;;
57848;SDS011;68645;44.762;21.516;2023-04-01T13:44:11;21.05;;;6.22;;
57848;SDS011;68645;44.762;21.516;2023-04-01T14:08:42;4.13;;;2.63;;
57848;SDS011;68645;44.762;21.516;2023-04-01T14:11:15;7.07;;;3.60;;
57848;SDS011;68645;44.762;21.516;2023-04-01T14:19:03;8.20;;;4.97;;
57848;SDS011;68645;44.762;21.516;2023-04-01T14:21:46;7.43;;;3.42;;
57848;SDS011;68645;44.762;21.516;2023-04-01T14:29:57;9.55;;;4.95;;
57848;SDS011;68645;44.762;21.516;2023-04-01T14:32:34;16.90;;;5.70;;
57848;SDS011;68645;44.762;21.516;2023-04-01T14:37:38;8.73;;;5.40;;
57848;SDS011;68645;44.762;21.516;2023-04-01T14:45:42;12.23;;;4.60;;
57848;SDS011;68645;44.762;21.516;2023-04-01T14:50:50;4.95;;;2.95;;
57848;SDS011;68645;44.762;21.516;2023-04-01T14:55:53;6.22;;;2.90;;
57848;SDS011;68645;44.762;21.516;2023-04-01T14:58:21;10.50;;;4.43;;
57848;SDS011;68645;44.762;21.516;2023-04-01T15:06:36;8.85;;;4.35;;
57848;SDS011;68645;44.762;21.516;2023-04-01T15:08:50;12.88;;;6.20;;
57848;SDS011;68645;44.762;21.516;2023-04-01T15:32:00;17.45;;;8.85;;
57848;SDS011;68645;44.762;21.516;2023-04-01T15:34:42;13.50;;;7.82;;
57848;SDS011;68645;44.762;21.516;2023-04-01T15:37:18;9.75;;;5.70;;
57848;SDS011;68645;44.762;21.516;2023-04-01T15:45:23;14.23;;;7.80;;
57848;SDS011;68645;44.762;21.516;2023-04-01T15:48:11;11.05;;;6.10;;
57848;SDS011;68645;44.762;21.516;2023-04-01T16:16:59;17.88;;;10.43;;
57848;SDS011;68645;44.762;21.516;2023-04-01T16:19:40;37.25;;;21.40;;
57848;SDS011;68645;44.762;21.516;2023-04-01T16:35:14;14.15;;;9.13;;
57848;SDS011;68645;44.762;21.516;2023-04-01T16:40:37;19.10;;;12.38;;
57848;SDS011;68645;44.762;21.516;2023-04-01T16:45:43;18.30;;;12.77;;
57848;SDS011;68645;44.762;21.516;2023-04-01T16:53:42;21.70;;;15.57;;
57848;SDS011;68645;44.762;21.516;2023-04-01T16:57:01;19.52;;;12.70;;
57848;SDS011;68645;44.762;21.516;2023-04-01T16:58:59;23.95;;;16.35;;
57848;SDS011;68645;44.762;21.516;2023-04-01T17:02:10;19.85;;;13.85;;
57848;SDS011;68645;44.762;21.516;2023-04-01T17:04:19;15.95;;;10.80;;
57848;SDS011;68645;44.762;21.516;2023-04-01T17:07:06;14.07;;;10.20;;
57848;SDS011;68645;44.762;21.516;2023-04-01T17:17:57;16.33;;;10.57;;
57848;SDS011;68645;44.762;21.516;2023-04-01T17:23:14;15.93;;;9.05;;
57848;SDS011;68645;44.762;21.516;2023-04-01T17:31:15;18.70;;;14.02;;
57848;SDS011;68645;44.762;21.516;2023-04-01T17:33:55;47.25;;;27.88;;
57848;SDS011;68645;44.762;21.516;2023-04-01T17:36:35;30.05;;;18.10;;
57848;SDS011;68645;44.762;21.516;2023-04-01T17:41:51;43.75;;;24.65;;
57848;SDS011;68645;44.762;21.516;2023-04-01T17:47:21;42.22;;;24.25;;
57848;SDS011;68645;44.762;21.516;2023-04-01T17:50:02;36.60;;;22.40;;
57848;SDS011;68645;44.762;21.516;2023-04-01T17:55:05;34.58;;;23.48;;
57848;SDS011;68645;44.762;21.516;2023-04-01T17:57:38;36.00;;;23.42;;
57848;SDS011;68645;44.762;21.516;2023-04-01T18:03:00;32.58;;;24.10;;
57848;SDS011;68645;44.762;21.516;2023-04-01T18:05:52;37.60;;;26.38;;
57848;SDS011;68645;44.762;21.516;2023-04-01T18:13:48;35.50;;;26.95;;
57848;SDS011;68645;44.762;21.516;2023-04-01T18:23:36;39.80;;;30.25;;
57848;SDS011;68645;44.762;21.516;2023-04-01T18:26:10;29.67;;;24.17;;
57848;SDS011;68645;44.762;21.516;2023-04-01T18:28:38;30.50;;;25.90;;
57848;SDS011;68645;44.762;21.516;2023-04-01T18:31:07;29.85;;;23.90;;
57848;SDS011;68645;44.762;21.516;2023-04-01T18:33:46;24.75;;;21.20;;
57848;SDS011;68645;44.762;21.516;2023-04-01T18:36:35;28.90;;;23.67;;
57848;SDS011;68645;44.762;21.516;2023-04-01T18:41:32;38.47;;;27.52;;
57848;SDS011;68645;44.762;21.516;2023-04-01T18:54:42;36.42;;;26.25;;
57848;SDS011;68645;44.762;21.516;2023-04-01T18:57:12;34.17;;;26.15;;
57848;SDS011;68645;44.762;21.516;2023-04-01T18:59:40;35.58;;;27.38;;
57848;SDS011;68645;44.762;21.516;2023-04-01T19:04:45;31.38;;;23.08;;
57848;SDS011;68645;44.762;21.516;2023-04-01T19:09:50;40.13;;;26.88;;
57848;SDS011;68645;44.762;21.516;2023-04-01T19:12:24;81.32;;;44.83;;
57848;SDS011;68645;44.762;21.516;2023-04-01T19:14:57;74.55;;;42.90;;
57848;SDS011;68645;44.762;21.516;2023-04-01T19:17:32;84.72;;;50.08;;
57848;SDS011;68645;44.762;21.516;2023-04-01T19:20:12;65.68;;;39.58;;
57848;SDS011;68645;44.762;21.516;2023-04-01T19:28:26;29.45;;;22.67;;
57848;SDS011;68645;44.762;21.516;2023-04-01T19:30:58;31.45;;;22.70;;
57848;SDS011;68645;44.762;21.516;2023-04-01T19:33:30;32.90;;;28.58;;
57848;SDS011;68645;44.762;21.516;2023-04-01T19:38:36;29.67;;;22.23;;
57848;SDS011;68645;44.762;21.516;2023-04-01T19:41:20;25.08;;;20.08;;
57848;SDS011;68645;44.762;21.516;2023-04-01T19:46:37;32.58;;;24.30;;
57848;SDS011;68645;44.762;21.516;2023-04-01T19:59:16;36.33;;;23.08;;
57848;SDS011;68645;44.762;21.516;2023-04-01T20:11:58;36.65;;;25.75;;
57848;SDS011;68645;44.762;21.516;2023-04-01T20:16:55;52.25;;;30.98;;
57848;SDS011;68645;44.762;21.516;2023-04-01T20:21:50;39.03;;;24.73;;
57848;SDS011;68645;44.762;21.516;2023-04-01T20:24:18;33.92;;;24.13;;
57848;SDS011;68645;44.762;21.516;2023-04-01T20:26:51;38.65;;;27.38;;
57848;SDS011;68645;44.762;21.516;2023-04-01T20:32:05;37.17;;;26.58;;
57848;SDS011;68645;44.762;21.516;2023-04-01T20:34:35;43.10;;;28.17;;
57848;SDS011;68645;44.762;21.516;2023-04-01T20:42:29;45.03;;;29.30;;
57848;SDS011;68645;44.762;21.516;2023-04-01T20:45:08;42.95;;;29.13;;
57848;SDS011;68645;44.762;21.516;2023-04-01T20:52:49;34.72;;;23.48;;
57848;SDS011;68645;44.762;21.516;2023-04-01T20:58:09;37.50;;;27.40;;
57848;SDS011;68645;44.762;21.516;2023-04-01T21:00:41;33.90;;;23.98;;
57848;SDS011;68645;44.762;21.516;2023-04-01T21:09:11;33.88;;;22.17;;
57848;SDS011;68645;44.762;21.516;2023-04-01T21:19:06;31.42;;;20.67;;
57848;SDS011;68645;44.762;21.516;2023-04-01T21:49:40;30.83;;;19.95;;
57848;SDS011;68645;44.762;21.516;2023-04-01T21:52:50;24.75;;;16.48;;
57848;SDS011;68645;44.762;21.516;2023-04-01T22:00:14;38.88;;;25.55;;
57848;SDS011;68645;44.762;21.516;2023-04-01T22:05:54;26.92;;;16.83;;
57848;SDS011;68645;44.762;21.516;2023-04-01T22:10:48;47.83;;;28.95;;
57848;SDS011;68645;44.762;21.516;2023-04-01T22:13:24;40.50;;;24.00;;
57848;SDS011;68645;44.762;21.516;2023-04-01T22:18:40;21.00;;;14.73;;
57848;SDS011;68645;44.762;21.516;2023-04-01T22:21:12;18.98;;;13.90;;
57848;SDS011;68645;44.762;21.516;2023-04-01T22:29:10;22.88;;;15.88;;
57848;SDS011;68645;44.762;21.516;2023-04-01T22:31:48;24.40;;;15.40;;
57848;SDS011;68645;44.762;21.516;2023-04-01T22:34:16;22.90;;;15.52;;
57848;SDS011;68645;44.762;21.516;2023-04-01T22:36:51;25.58;;;15.35;;
57848;SDS011;68645;44.762;21.516;2023-04-01T22:39:24;25.08;;;15.55;;
57848;SDS011;68645;44.762;21.516;2023-04-01T22:42:04;26.17;;;16.05;;
57848;SDS011;68645;44.762;21.516;2023-04-01T22:50:14;20.58;;;13.38;;
57848;SDS011;68645;44.762;21.516;2023-04-01T22:52:42;18.42;;;12.65;;
57848;SDS011;68645;44.762;21.516;2023-04-01T22:55:29;28.48;;;17.30;;
57848;SDS011;68645;44.762;21.516;2023-04-01T22:57:57;30.23;;;18.80;;
57848;SDS011;68645;44.762;21.516;2023-04-01T23:00:41;32.13;;;18.23;;
57848;SDS011;68645;44.762;21.516;2023-04-01T23:05:43;27.95;;;17.98;;
57848;SDS011;68645;44.762;21.516;2023-04-01T23:11:00;23.42;;;17.10;;
57848;SDS011;68645;44.762;21.516;2023-04-01T23:13:29;42.03;;;24.90;;
57848;SDS011;68645;44.762;21.516;2023-04-01T23:15:57;40.53;;;25.38;;
57848;SDS011;68645;44.762;21.516;2023-04-01T23:18:48;36.65;;;23.65;;
57848;SDS011;68645;44.762;21.516;2023-04-01T23:21:15;43.42;;;25.38;;
57848;SDS011;68645;44.762;21.516;2023-04-01T23:26:40;26.83;;;17.83;;
57848;SDS011;68645;44.762;21.516;2023-04-01T23:29:12;25.15;;;17.55;;
57848;SDS011;68645;44.762;21.516;2023-04-01T23:31:42;26.73;;;17.55;;
57848;SDS011;68645;44.762;21.516;2023-04-01T23:36:38;27.17;;;17.75;;
57848;SDS011;68645;44.762;21.516;2023-04-01T23:39:11;25.88;;;17.10;;
57848;SDS011;68645;44.762;21.516;2023-04-01T23:41:39;30.80;;;18.63;;
57848;SDS011;68645;44.762;21.516;2023-04-01T23:44:10;20.92;;;14.30;;
57848;SDS011;68645;44.762;21.516;2023-04-01T23:46:37;19.42;;;12.88;;
57848;SDS011;68645;44.762;21.516;2023-04-01T23:49:05;17.38;;;11.93;;
57848;SDS011;68645;44.762;21.516;2023-04-01T23:51:38;19.50;;;11.48;;
57848;SDS011;68645;44.762;21.516;2023-04-01T23:54:13;19.80;;;13.70;;
57848;SDS011;68645;44.762;21.516;2023-04-01T23:56:53;21.55;;;13.73;;
57848;SDS011;68645;44.762;21.516;2023-04-01T23:59:24;23.20;;;14.75;;
